Time,TemperatureF,DewpointF,PressureIn,WindDirection,WindDirectionDegrees,WindSpeedMPH,WindSpeedGustMPH,Humidity,HourlyPrecipIn,Conditions,Clouds,dailyrainin,SoftwareType,DateUTC
2013-06-01 00:01:00,73.0,61.5,30.04,South,189,2.0,11.0,67,0.00,,,0.00,meteohub,2013-06-01 04:01:00,
2013-06-01 00:06:00,73.0,61.5,30.04,SSE,150,3.0,9.0,67,0.00,,,0.00,meteohub,2013-06-01 04:06:00,
2013-06-01 00:11:00,73.0,61.5,30.04,WNW,284,4.0,9.0,67,0.00,,,0.00,meteohub,2013-06-01 04:11:00,
2013-06-01 00:16:00,73.0,61.5,30.04,SSE,167,5.0,11.0,67,0.00,,,0.00,meteohub,2013-06-01 04:16:00,
2013-06-01 00:21:00,73.2,62.1,30.04,SW,236,10.0,11.0,68,0.00,,,0.00,meteohub,2013-06-01 04:21:00,
2013-06-01 00:26:00,73.8,62.6,30.04,South,180,3.0,11.0,68,0.00,,,0.00,meteohub,2013-06-01 04:26:00,
2013-06-01 00:31:00,73.9,62.8,30.04,SW,217,4.0,11.0,68,0.00,,,0.00,meteohub,2013-06-01 04:31:00,
2013-06-01 00:36:00,73.9,62.8,30.04,SW,226,6.0,15.0,68,0.00,,,0.00,meteohub,2013-06-01 04:36:00,
2013-06-01 00:41:00,74.1,63.0,30.04,WSW,255,4.0,15.0,68,0.00,,,0.00,meteohub,2013-06-01 04:41:00,
2013-06-01 00:46:00,74.1,63.0,30.04,WSW,253,7.0,15.0,68,0.00,,,0.00,meteohub,2013-06-01 04:46:00,
2013-06-01 00:51:00,73.9,62.8,30.04,West,259,3.0,14.0,68,0.00,,,0.00,meteohub,2013-06-01 04:51:00,
2013-06-01 00:56:00,73.9,62.8,30.04,South,177,3.0,15.0,68,0.00,,,0.00,meteohub,2013-06-01 04:56:00,
2013-06-01 01:01:00,73.9,62.8,30.04,ESE,108,1.0,15.0,68,0.00,,,0.00,meteohub,2013-06-01 05:01:00,
2013-06-01 01:06:00,73.8,62.6,30.04,SSE,148,5.0,12.0,68,0.00,,,0.00,meteohub,2013-06-01 05:06:00,
2013-06-01 01:11:00,73.9,62.8,30.04,SSW,204,2.0,12.0,68,0.00,,,0.00,meteohub,2013-06-01 05:11:00,
2013-06-01 01:16:00,73.9,62.8,30.04,West,277,4.0,12.0,68,0.00,,,0.00,meteohub,2013-06-01 05:16:00,
2013-06-01 01:21:00,73.8,62.6,30.04,SSW,204,3.0,11.0,68,0.00,,,0.00,meteohub,2013-06-01 05:21:00,
2013-06-01 01:26:00,73.6,61.9,30.04,SE,127,1.0,11.0,67,0.00,,,0.00,meteohub,2013-06-01 05:26:00,
2013-06-01 01:31:00,73.0,61.0,30.04,SW,224,3.0,13.0,66,0.00,,,0.00,meteohub,2013-06-01 05:31:00,
2013-06-01 01:36:00,72.9,60.8,30.04,South,188,3.0,13.0,66,0.00,,,0.00,meteohub,2013-06-01 05:36:00,
2013-06-01 01:41:00,72.7,60.3,30.04,South,180,8.0,13.0,65,0.00,,,0.00,meteohub,2013-06-01 05:41:00,
2013-06-01 01:46:00,72.3,59.0,30.03,West,271,4.0,11.0,63,0.00,,,0.00,meteohub,2013-06-01 05:46:00,
2013-06-01 01:51:00,72.1,57.9,30.03,SSW,208,4.0,11.0,61,0.00,,,0.00,meteohub,2013-06-01 05:51:00,
2013-06-01 01:56:00,71.8,57.2,30.04,SSW,207,4.0,10.0,60,0.00,,,0.00,meteohub,2013-06-01 05:56:00,
2013-06-01 02:01:00,71.8,56.1,30.03,SSE,159,6.0,10.0,58,0.00,,,0.00,meteohub,2013-06-01 06:01:00,
2013-06-01 02:06:00,71.4,54.9,30.03,SSE,148,2.0,10.0,56,0.00,,,0.00,meteohub,2013-06-01 06:06:00,
2013-06-01 02:11:00,71.2,54.3,30.03,SSW,207,3.0,9.0,55,0.00,,,0.00,meteohub,2013-06-01 06:11:00,
2013-06-01 02:16:00,71.2,53.2,30.03,SW,224,4.0,10.0,53,0.00,,,0.00,meteohub,2013-06-01 06:16:00,
2013-06-01 02:21:00,70.9,52.3,30.03,South,184,5.0,10.0,52,0.00,,,0.00,meteohub,2013-06-01 06:21:00,
2013-06-01 02:26:00,70.5,50.9,30.03,South,176,5.0,12.0,50,0.00,,,0.00,meteohub,2013-06-01 06:26:00,
2013-06-01 02:31:00,70.3,48.0,30.03,SSE,156,2.0,12.0,45,0.00,,,0.00,meteohub,2013-06-01 06:31:00,
2013-06-01 02:36:00,70.0,46.4,30.03,West,264,3.0,12.0,43,0.00,,,0.00,meteohub,2013-06-01 06:36:00,
2013-06-01 02:41:00,69.6,42.8,30.03,ESE,115,4.0,10.0,38,0.00,,,0.00,meteohub,2013-06-01 06:41:00,
2013-06-01 02:46:00,69.4,39.0,30.03,WSW,240,4.0,10.0,33,0.00,,,0.00,meteohub,2013-06-01 06:46:00,
2013-06-01 02:51:00,69.3,35.6,30.03,South,183,3.0,9.0,29,0.00,,,0.00,meteohub,2013-06-01 06:51:00,
2013-06-01 02:56:00,69.1,34.5,30.03,SSW,208,2.0,9.0,28,0.00,,,0.00,meteohub,2013-06-01 06:56:00,
2013-06-01 03:01:00,69.1,31.8,30.03,South,169,4.0,9.0,25,0.00,,,0.00,meteohub,2013-06-01 07:01:00,
2013-06-01 03:06:00,69.1,26.2,30.03,SW,227,4.0,8.0,20,0.00,,,0.00,meteohub,2013-06-01 07:06:00,
2013-06-01 03:11:00,69.1,29.7,30.02,WSW,246,3.0,8.0,23,0.00,,,0.00,meteohub,2013-06-01 07:11:00,
2013-06-01 03:16:00,69.1,28.6,30.03,SE,125,4.0,11.0,22,0.00,,,0.00,meteohub,2013-06-01 07:16:00,
2013-06-01 03:21:00,68.7,26.1,30.03,SSE,149,3.0,11.0,20,0.00,,,0.00,meteohub,2013-06-01 07:21:00,
2013-06-01 03:26:00,68.7,24.8,30.03,SSW,205,1.0,11.0,19,0.00,,,0.00,meteohub,2013-06-01 07:26:00,
2013-06-01 03:31:00,68.7,23.5,30.02,SE,135,3.0,10.0,18,0.00,,,0.00,meteohub,2013-06-01 07:31:00,
2013-06-01 03:36:00,68.5,21.9,30.03,SW,226,4.0,12.0,17,0.00,,,0.00,meteohub,2013-06-01 07:36:00,
2013-06-01 03:41:00,68.5,19.0,30.03,SSE,154,3.0,12.0,15,0.00,,,0.00,meteohub,2013-06-01 07:41:00,
2013-06-01 03:46:00,68.5,17.4,30.03,ESE,122,4.0,12.0,14,0.00,,,0.00,meteohub,2013-06-01 07:46:00,
2013-06-01 03:51:00,68.5,17.4,30.03,South,172,2.0,12.0,14,0.00,,,0.00,meteohub,2013-06-01 07:51:00,
2013-06-01 03:56:00,68.5,15.8,30.03,SSW,200,2.0,11.0,13,0.00,,,0.00,meteohub,2013-06-01 07:56:00,
2013-06-01 04:01:00,68.5,13.8,30.03,SE,127,3.0,8.0,12,0.00,,,0.00,meteohub,2013-06-01 08:01:00,
2013-06-01 04:06:00,68.7,12.0,30.03,South,181,2.0,7.0,11,0.00,,,0.00,meteohub,2013-06-01 08:06:00,
2013-06-01 04:11:00,68.9,10.0,30.03,WNW,289,7.0,8.0,10,0.00,,,0.00,meteohub,2013-06-01 08:11:00,
2013-06-01 04:16:00,69.3,5.4,30.02,WSW,243,4.0,12.0,8,0.00,,,0.00,meteohub,2013-06-01 08:16:00,
2013-06-01 04:21:00,69.4,21.2,30.03,SW,217,3.0,12.0,16,0.00,,,0.00,meteohub,2013-06-01 08:21:00,
2013-06-01 04:26:00,69.4,19.8,30.03,ESE,108,9.0,12.0,15,0.00,,,0.00,meteohub,2013-06-01 08:26:00,
2013-06-01 04:31:00,69.8,16.7,30.03,SSW,195,4.0,9.0,13,0.00,,,0.00,meteohub,2013-06-01 08:31:00,
2013-06-01 04:36:00,70.0,24.4,30.03,South,188,3.0,9.0,18,0.00,,,0.00,meteohub,2013-06-01 08:36:00,
2013-06-01 04:41:00,70.2,27.1,30.03,South,172,3.0,9.0,20,0.00,,,0.00,meteohub,2013-06-01 08:41:00,
2013-06-01 04:46:00,70.3,28.6,30.03,WSW,242,1.0,8.0,21,0.00,,,0.00,meteohub,2013-06-01 08:46:00,
2013-06-01 04:51:00,70.3,28.6,30.03,WNW,284,2.0,8.0,21,0.00,,,0.00,meteohub,2013-06-01 08:51:00,
2013-06-01 04:56:00,70.3,27.3,30.03,WSW,253,2.0,8.0,20,0.00,,,0.00,meteohub,2013-06-01 08:56:00,
2013-06-01 05:01:00,70.3,28.6,30.03,SW,219,1.0,8.0,21,0.00,,,0.00,meteohub,2013-06-01 09:01:00,
2013-06-01 05:06:00,70.3,28.6,30.04,SSW,195,1.0,8.0,21,0.00,,,0.00,meteohub,2013-06-01 09:06:00,
2013-06-01 05:11:00,70.3,27.3,30.04,SSE,165,1.0,8.0,20,0.00,,,0.00,meteohub,2013-06-01 09:11:00,
2013-06-01 05:16:00,70.2,24.6,30.04,SSE,165,2.0,8.0,18,0.00,,,0.00,meteohub,2013-06-01 09:16:00,
2013-06-01 05:21:00,70.2,23.4,30.04,SW,214,1.0,9.0,17,0.00,,,0.00,meteohub,2013-06-01 09:21:00,
2013-06-01 05:26:00,70.2,21.9,30.04,SW,236,2.0,12.0,16,0.00,,,0.00,meteohub,2013-06-01 09:26:00,
2013-06-01 05:31:00,70.2,20.3,30.04,South,191,1.0,12.0,15,0.00,,,0.00,meteohub,2013-06-01 09:31:00,
2013-06-01 05:36:00,70.0,20.1,30.04,SE,132,2.0,8.0,15,0.00,,,0.00,meteohub,2013-06-01 09:36:00,
2013-06-01 05:41:00,70.0,15.1,30.04,WSW,245,3.0,8.0,12,0.00,,,0.00,meteohub,2013-06-01 09:41:00,
2013-06-01 05:46:00,70.3,18.9,30.04,South,188,1.0,8.0,14,0.00,,,0.00,meteohub,2013-06-01 09:46:00,
2013-06-01 05:51:00,70.7,25.2,30.04,SW,221,3.0,9.0,18,0.00,,,0.00,meteohub,2013-06-01 09:51:00,
2013-06-01 05:56:00,70.9,30.2,30.04,SW,229,2.0,9.0,22,0.00,,,0.00,meteohub,2013-06-01 09:56:00,
2013-06-01 06:01:00,71.1,32.4,30.04,SW,221,2.0,8.0,24,0.00,,,0.00,meteohub,2013-06-01 10:01:00,
2013-06-01 06:06:00,71.2,34.5,30.04,South,176,2.0,7.0,26,0.00,,,0.00,meteohub,2013-06-01 10:06:00,
2013-06-01 06:11:00,71.4,36.7,30.04,West,269,3.0,7.0,28,0.00,,,0.00,meteohub,2013-06-01 10:11:00,
2013-06-01 06:16:00,71.6,38.5,30.04,SSW,194,2.0,7.0,30,0.00,,,0.00,meteohub,2013-06-01 10:16:00,
2013-06-01 06:21:00,71.8,40.3,30.04,South,172,1.0,7.0,32,0.00,,,0.00,meteohub,2013-06-01 10:21:00,
2013-06-01 06:26:00,71.8,41.2,30.04,SSW,203,2.0,7.0,33,0.00,,,0.00,meteohub,2013-06-01 10:26:00,
2013-06-01 06:31:00,72.0,42.1,30.04,SSW,198,3.0,8.0,34,0.00,,,0.00,meteohub,2013-06-01 10:31:00,
2013-06-01 06:36:00,72.1,44.4,30.04,SE,143,2.0,8.0,37,0.00,,,0.00,meteohub,2013-06-01 10:36:00,
2013-06-01 06:41:00,72.1,45.1,30.04,SSE,150,2.0,8.0,38,0.00,,,0.00,meteohub,2013-06-01 10:41:00,
2013-06-01 06:46:00,72.3,45.3,30.04,SSW,210,4.0,5.0,38,0.00,,,0.00,meteohub,2013-06-01 10:46:00,
2013-06-01 06:51:00,72.7,45.7,30.04,SSE,157,3.0,5.0,38,0.00,,,0.00,meteohub,2013-06-01 10:51:00,
2013-06-01 06:56:00,73.0,46.6,30.04,SSW,205,2.0,5.0,39,0.00,,,0.00,meteohub,2013-06-01 10:56:00,
2013-06-01 07:01:00,73.2,49.5,30.04,SSW,204,2.0,6.0,43,0.00,,,0.00,meteohub,2013-06-01 11:01:00,
2013-06-01 07:06:00,73.6,52.2,30.04,WSW,255,1.0,6.0,47,0.00,,,0.00,meteohub,2013-06-01 11:06:00,
2013-06-01 07:11:00,73.6,54.3,30.04,SSW,210,4.0,6.0,51,0.00,,,0.00,meteohub,2013-06-01 11:11:00,
2013-06-01 07:16:00,73.6,54.9,30.05,SE,144,2.0,6.0,52,0.00,,,0.00,meteohub,2013-06-01 11:16:00,
2013-06-01 07:21:00,73.6,54.9,30.05,SSE,165,1.0,6.0,52,0.00,,,0.00,meteohub,2013-06-01 11:21:00,
2013-06-01 07:26:00,73.8,56.1,30.04,WSW,241,4.0,7.0,54,0.00,,,0.00,meteohub,2013-06-01 11:26:00,
2013-06-01 07:31:00,73.8,56.1,30.04,SSE,168,3.0,7.0,54,0.00,,,0.00,meteohub,2013-06-01 11:31:00,
2013-06-01 07:36:00,73.9,56.8,30.05,SW,232,1.0,7.0,55,0.00,,,0.00,meteohub,2013-06-01 11:36:00,
2013-06-01 07:41:00,74.1,56.5,30.05,South,177,3.0,6.0,54,0.00,,,0.00,meteohub,2013-06-01 11:41:00,
2013-06-01 07:46:00,74.5,56.3,30.05,SW,224,4.0,6.0,53,0.00,,,0.00,meteohub,2013-06-01 11:46:00,
2013-06-01 07:51:00,74.8,57.6,30.05,SW,221,1.0,5.0,55,0.00,,,0.00,meteohub,2013-06-01 11:51:00,
2013-06-01 07:56:00,75.4,59.5,30.05,SSW,197,1.0,6.0,58,0.00,,,0.00,meteohub,2013-06-01 11:56:00,
2013-06-01 08:01:00,75.6,59.7,30.05,SW,214,2.0,7.0,58,0.00,,,0.00,meteohub,2013-06-01 12:01:00,
2013-06-01 08:06:00,76.1,60.8,30.05,SW,226,1.0,7.0,59,0.00,,,0.00,meteohub,2013-06-01 12:06:00,
2013-06-01 08:11:00,76.6,61.7,30.05,WSW,246,1.0,7.0,60,0.00,,,0.00,meteohub,2013-06-01 12:11:00,
2013-06-01 08:16:00,77.2,61.7,30.05,SSW,211,0.0,6.0,59,0.00,,,0.00,meteohub,2013-06-01 12:16:00,
2013-06-01 08:21:00,77.5,64.4,30.05,WSW,243,4.0,5.0,64,0.00,,,0.00,meteohub,2013-06-01 12:21:00,
2013-06-01 08:26:00,77.9,64.2,30.05,SW,236,1.0,6.0,63,0.00,,,0.00,meteohub,2013-06-01 12:26:00,
2013-06-01 08:31:00,78.1,64.9,30.05,SW,235,2.0,6.0,64,0.00,,,0.00,meteohub,2013-06-01 12:31:00,
2013-06-01 08:36:00,78.1,65.3,30.05,SW,233,1.0,6.0,65,0.00,,,0.00,meteohub,2013-06-01 12:36:00,
2013-06-01 08:41:00,78.6,66.4,30.05,WSW,254,2.0,6.0,66,0.00,,,0.00,meteohub,2013-06-01 12:41:00,
2013-06-01 08:46:00,79.0,66.2,30.05,SSE,150,2.0,7.0,65,0.00,,,0.00,meteohub,2013-06-01 12:46:00,
2013-06-01 08:51:00,79.3,66.9,30.05,South,179,1.0,7.0,66,0.00,,,0.00,meteohub,2013-06-01 12:51:00,
2013-06-01 08:56:00,80.1,67.6,30.04,West,280,3.0,7.0,66,0.00,,,0.00,meteohub,2013-06-01 12:56:00,
2013-06-01 09:01:00,80.4,68.0,30.05,SSW,208,2.0,7.0,66,0.00,,,0.00,meteohub,2013-06-01 13:01:00,
2013-06-01 09:06:00,80.4,68.5,30.05,SSE,156,1.0,6.0,67,0.00,,,0.00,meteohub,2013-06-01 13:06:00,
2013-06-01 09:11:00,81.0,68.5,30.04,WNW,303,0.0,8.0,66,0.00,,,0.00,meteohub,2013-06-01 13:11:00,
2013-06-01 09:16:00,81.1,69.1,30.04,WSW,245,4.0,8.0,67,0.00,,,0.00,meteohub,2013-06-01 13:16:00,
2013-06-01 09:21:00,81.1,69.1,30.04,SW,230,3.0,7.0,67,0.00,,,0.00,meteohub,2013-06-01 13:21:00,
2013-06-01 09:26:00,81.3,68.9,30.04,South,179,4.0,10.0,66,0.00,,,0.00,meteohub,2013-06-01 13:26:00,
2013-06-01 09:31:00,81.5,69.4,30.04,SSW,211,3.0,10.0,67,0.00,,,0.00,meteohub,2013-06-01 13:31:00,
2013-06-01 09:36:00,81.5,69.4,30.04,SSE,159,2.0,9.0,67,0.00,,,0.00,meteohub,2013-06-01 13:36:00,
2013-06-01 09:41:00,82.0,69.6,30.04,South,179,3.0,10.0,66,0.00,,,0.00,meteohub,2013-06-01 13:41:00,
2013-06-01 09:46:00,82.6,70.0,30.04,SSW,210,3.0,10.0,66,0.00,,,0.00,meteohub,2013-06-01 13:46:00,
2013-06-01 09:51:00,82.4,70.0,30.04,South,191,1.0,10.0,66,0.00,,,0.00,meteohub,2013-06-01 13:51:00,
2013-06-01 09:56:00,82.8,69.8,30.04,SSW,205,4.0,10.0,65,0.00,,,0.00,meteohub,2013-06-01 13:56:00,
2013-06-01 10:01:00,82.6,69.6,30.04,SE,129,4.0,11.0,65,0.00,,,0.00,meteohub,2013-06-01 14:01:00,
2013-06-01 10:06:00,82.8,69.8,30.04,West,276,2.0,11.0,65,0.00,,,0.00,meteohub,2013-06-01 14:06:00,
2013-06-01 10:11:00,82.9,70.3,30.04,WSW,239,2.0,11.0,66,0.00,,,0.00,meteohub,2013-06-01 14:11:00,
2013-06-01 10:16:00,83.5,70.0,30.04,WNW,291,2.0,11.0,64,0.00,,,0.00,meteohub,2013-06-01 14:16:00,
2013-06-01 10:21:00,83.3,69.4,30.04,SW,232,4.0,9.0,63,0.00,,,0.00,meteohub,2013-06-01 14:21:00,
2013-06-01 10:26:00,83.7,70.7,30.04,WSW,252,7.0,11.0,65,0.00,,,0.00,meteohub,2013-06-01 14:26:00,
2013-06-01 10:31:00,83.8,70.9,30.04,SSW,207,4.0,11.0,65,0.00,,,0.00,meteohub,2013-06-01 14:31:00,
2013-06-01 10:36:00,84.2,71.2,30.03,SSE,152,3.0,11.0,65,0.00,,,0.00,meteohub,2013-06-01 14:36:00,
2013-06-01 10:41:00,84.6,71.4,30.04,SSE,153,5.0,10.0,65,0.00,,,0.00,meteohub,2013-06-01 14:41:00,
2013-06-01 10:46:00,84.7,70.7,30.03,ESE,119,2.0,8.0,63,0.00,,,0.00,meteohub,2013-06-01 14:46:00,
2013-06-01 10:51:00,84.9,70.9,30.03,WNW,293,2.0,8.0,63,0.00,,,0.00,meteohub,2013-06-01 14:51:00,
2013-06-01 10:56:00,85.3,72.1,30.03,SSW,198,1.0,7.0,65,0.00,,,0.00,meteohub,2013-06-01 14:56:00,
2013-06-01 11:01:00,85.5,71.4,30.03,WSW,253,7.0,7.0,63,0.00,,,0.00,meteohub,2013-06-01 15:01:00,
2013-06-01 11:06:00,85.3,71.2,30.03,ESE,111,1.0,8.0,63,0.00,,,0.00,meteohub,2013-06-01 15:06:00,
2013-06-01 11:11:00,84.9,70.5,30.03,NW,315,1.0,8.0,62,0.00,,,0.00,meteohub,2013-06-01 15:11:00,
2013-06-01 11:16:00,84.4,70.3,30.03,WSW,253,4.0,8.0,63,0.00,,,0.00,meteohub,2013-06-01 15:16:00,
2013-06-01 11:21:00,83.8,70.0,30.03,WNW,283,2.0,7.0,63,0.00,,,0.00,meteohub,2013-06-01 15:21:00,
2013-06-01 11:26:00,84.0,70.5,30.03,SW,230,7.0,7.0,64,0.00,,,0.00,meteohub,2013-06-01 15:26:00,
2013-06-01 11:31:00,83.8,70.3,30.03,West,274,3.0,8.0,64,0.00,,,0.00,meteohub,2013-06-01 15:31:00,
2013-06-01 11:36:00,84.0,71.1,30.03,WSW,257,2.0,9.0,65,0.00,,,0.00,meteohub,2013-06-01 15:36:00,
2013-06-01 11:41:00,84.4,70.3,30.03,West,273,0.0,9.0,63,0.00,,,0.00,meteohub,2013-06-01 15:41:00,
2013-06-01 11:46:00,84.0,70.0,30.03,South,174,0.0,10.0,63,0.00,,,0.00,meteohub,2013-06-01 15:46:00,
2013-06-01 11:51:00,83.3,69.8,30.03,WNW,294,4.0,10.0,64,0.00,,,0.00,meteohub,2013-06-01 15:51:00,
2013-06-01 11:56:00,83.7,71.1,30.02,ESE,108,2.0,8.0,66,0.00,,,0.00,meteohub,2013-06-01 15:56:00,
2013-06-01 12:01:00,85.3,70.7,30.02,West,280,3.0,6.0,62,0.00,,,0.00,meteohub,2013-06-01 16:01:00,
2013-06-01 12:06:00,85.8,71.2,30.02,WSW,242,4.0,9.0,62,0.00,,,0.00,meteohub,2013-06-01 16:06:00,
2013-06-01 12:11:00,86.4,71.2,30.02,South,188,2.0,10.0,61,0.00,,,0.00,meteohub,2013-06-01 16:11:00,
2013-06-01 12:16:00,86.7,71.6,30.02,SSE,167,2.0,10.0,61,0.00,,,0.00,meteohub,2013-06-01 16:16:00,
2013-06-01 12:21:00,86.4,71.2,30.02,SE,137,6.0,10.0,61,0.00,,,0.00,meteohub,2013-06-01 16:21:00,
2013-06-01 12:26:00,85.6,71.6,30.02,SE,146,1.0,9.0,63,0.00,,,0.00,meteohub,2013-06-01 16:26:00,
2013-06-01 12:31:00,85.3,70.3,30.02,South,179,4.0,9.0,61,0.00,,,0.00,meteohub,2013-06-01 16:31:00,
2013-06-01 12:36:00,84.7,70.3,30.01,SSW,194,5.0,12.0,62,0.00,,,0.00,meteohub,2013-06-01 16:36:00,
2013-06-01 12:41:00,84.6,70.5,30.01,SW,224,5.0,12.0,63,0.00,,,0.00,meteohub,2013-06-01 16:41:00,
2013-06-01 12:46:00,84.6,71.1,30.01,ESE,117,2.0,12.0,64,0.00,,,0.00,meteohub,2013-06-01 16:46:00,
2013-06-01 12:51:00,84.6,70.5,30.01,SSE,158,2.0,12.0,63,0.00,,,0.00,meteohub,2013-06-01 16:51:00,
2013-06-01 12:56:00,84.4,70.3,30.01,West,261,5.0,12.0,63,0.00,,,0.00,meteohub,2013-06-01 16:56:00,
2013-06-01 13:01:00,84.6,71.1,30.01,SW,224,2.0,12.0,64,0.00,,,0.00,meteohub,2013-06-01 17:01:00,
2013-06-01 13:06:00,84.7,70.7,30.01,West,274,4.0,10.0,63,0.00,,,0.00,meteohub,2013-06-01 17:06:00,
2013-06-01 13:11:00,84.7,71.2,30.01,SE,127,0.0,12.0,64,0.00,,,0.00,meteohub,2013-06-01 17:11:00,
2013-06-01 13:16:00,84.9,70.9,30.01,SSE,149,2.0,12.0,63,0.00,,,0.00,meteohub,2013-06-01 17:16:00,
2013-06-01 13:21:00,84.7,71.2,30.01,West,270,3.0,12.0,64,0.00,,,0.00,meteohub,2013-06-01 17:21:00,
2013-06-01 13:26:00,84.6,71.1,30.01,West,262,4.0,9.0,64,0.00,,,0.00,meteohub,2013-06-01 17:26:00,
2013-06-01 13:31:00,84.6,70.5,30.01,East,101,4.0,10.0,63,0.00,,,0.00,meteohub,2013-06-01 17:31:00,
2013-06-01 13:36:00,84.7,70.7,30.01,South,184,9.0,11.0,63,0.00,,,0.00,meteohub,2013-06-01 17:36:00,
2013-06-01 13:41:00,84.4,70.9,30.01,SSW,193,6.0,14.0,64,0.00,,,0.00,meteohub,2013-06-01 17:41:00,
2013-06-01 13:46:00,84.4,70.9,30.01,ESE,115,2.0,14.0,64,0.00,,,0.00,meteohub,2013-06-01 17:46:00,
2013-06-01 13:51:00,84.2,71.2,30.00,ESE,103,5.0,14.0,65,0.00,,,0.00,meteohub,2013-06-01 17:51:00,
2013-06-01 13:56:00,84.6,71.4,30.00,WSW,239,4.0,12.0,65,0.00,,,0.00,meteohub,2013-06-01 17:56:00,
2013-06-01 14:01:00,85.3,71.8,30.00,South,181,4.0,12.0,64,0.00,,,0.00,meteohub,2013-06-01 18:01:00,
2013-06-01 14:06:00,85.3,71.2,29.99,WSW,249,3.0,9.0,63,0.00,,,0.00,meteohub,2013-06-01 18:06:00,
2013-06-01 14:11:00,84.9,70.9,29.99,SE,131,2.0,9.0,63,0.00,,,0.00,meteohub,2013-06-01 18:11:00,
2013-06-01 14:16:00,85.3,71.8,29.99,East,92,4.0,11.0,64,0.00,,,0.00,meteohub,2013-06-01 18:16:00,
2013-06-01 14:21:00,85.6,71.1,29.99,SE,131,1.0,11.0,62,0.00,,,0.00,meteohub,2013-06-01 18:21:00,
2013-06-01 14:26:00,85.5,71.4,29.99,South,184,5.0,10.0,63,0.00,,,0.00,meteohub,2013-06-01 18:26:00,
2013-06-01 14:31:00,85.5,72.0,29.99,SE,136,4.0,14.0,64,0.00,,,0.00,meteohub,2013-06-01 18:31:00,
2013-06-01 14:36:00,85.3,71.2,29.99,WNW,283,2.0,14.0,63,0.00,,,0.00,meteohub,2013-06-01 18:36:00,
2013-06-01 14:41:00,85.1,71.1,29.99,SE,134,2.0,14.0,63,0.00,,,0.00,meteohub,2013-06-01 18:41:00,
2013-06-01 14:46:00,84.7,70.7,29.99,SSE,148,9.0,11.0,63,0.00,,,0.00,meteohub,2013-06-01 18:46:00,
2013-06-01 14:51:00,84.6,71.1,29.99,SE,135,5.0,11.0,64,0.00,,,0.00,meteohub,2013-06-01 18:51:00,
2013-06-01 14:56:00,84.2,70.7,29.99,SE,146,9.0,13.0,64,0.00,,,0.00,meteohub,2013-06-01 18:56:00,
2013-06-01 15:01:00,83.8,70.9,29.99,NNW,342,3.0,13.0,65,0.00,,,0.00,meteohub,2013-06-01 19:01:00,
2013-06-01 15:06:00,83.8,70.9,29.99,West,260,8.0,13.0,65,0.00,,,0.00,meteohub,2013-06-01 19:06:00,
2013-06-01 15:11:00,83.7,70.7,29.99,SSW,199,10.0,13.0,65,0.00,,,0.00,meteohub,2013-06-01 19:11:00,
2013-06-01 15:16:00,83.7,70.2,29.98,South,174,6.0,14.0,64,0.00,,,0.00,meteohub,2013-06-01 19:16:00,
2013-06-01 15:21:00,83.8,70.9,29.98,SSW,210,5.0,14.0,65,0.00,,,0.00,meteohub,2013-06-01 19:21:00,
2013-06-01 15:26:00,83.1,70.2,29.98,South,181,3.0,15.0,65,0.00,,,0.00,meteohub,2013-06-01 19:26:00,
2013-06-01 15:31:00,83.1,70.2,29.98,SW,221,9.0,15.0,65,0.00,,,0.00,meteohub,2013-06-01 19:31:00,
2013-06-01 15:36:00,83.1,70.2,29.98,WSW,255,6.0,15.0,65,0.00,,,0.00,meteohub,2013-06-01 19:36:00,
2013-06-01 15:41:00,83.1,70.2,29.97,WSW,242,2.0,13.0,65,0.00,,,0.00,meteohub,2013-06-01 19:41:00,
2013-06-01 15:46:00,83.5,70.5,29.97,South,174,6.0,13.0,65,0.00,,,0.00,meteohub,2013-06-01 19:46:00,
2013-06-01 15:51:00,83.5,70.0,29.97,WSW,240,6.0,11.0,64,0.00,,,0.00,meteohub,2013-06-01 19:51:00,
2013-06-01 15:56:00,83.5,70.5,29.97,SSW,205,4.0,12.0,65,0.00,,,0.00,meteohub,2013-06-01 19:56:00,
2013-06-01 16:01:00,83.1,69.6,29.97,West,266,6.0,12.0,64,0.00,,,0.00,meteohub,2013-06-01 20:01:00,
2013-06-01 16:06:00,83.3,70.3,29.97,WSW,256,3.0,12.0,65,0.00,,,0.00,meteohub,2013-06-01 20:06:00,
2013-06-01 16:11:00,83.1,69.6,29.97,SSE,152,3.0,12.0,64,0.00,,,0.00,meteohub,2013-06-01 20:11:00,
2013-06-01 16:16:00,82.9,69.4,29.97,South,191,3.0,13.0,64,0.00,,,0.00,meteohub,2013-06-01 20:16:00,
2013-06-01 16:21:00,82.9,70.0,29.97,SSE,162,3.0,13.0,65,0.00,,,0.00,meteohub,2013-06-01 20:21:00,
2013-06-01 16:26:00,82.9,70.0,29.97,West,270,2.0,13.0,65,0.00,,,0.00,meteohub,2013-06-01 20:26:00,
2013-06-01 16:31:00,83.1,70.2,29.97,South,173,2.0,12.0,65,0.00,,,0.00,meteohub,2013-06-01 20:31:00,
2013-06-01 16:36:00,83.3,69.8,29.98,SSW,194,7.0,10.0,64,0.00,,,0.00,meteohub,2013-06-01 20:36:00,
2013-06-01 16:41:00,83.1,70.5,29.98,WSW,249,0.0,10.0,66,0.00,,,0.00,meteohub,2013-06-01 20:41:00,
2013-06-01 16:46:00,83.1,70.2,29.97,NE,42,3.0,11.0,65,0.00,,,0.00,meteohub,2013-06-01 20:46:00,
2013-06-01 16:51:00,83.3,70.3,29.97,SSE,150,2.0,11.0,65,0.00,,,0.00,meteohub,2013-06-01 20:51:00,
2013-06-01 16:56:00,83.3,69.8,29.97,SSE,160,6.0,12.0,64,0.00,,,0.00,meteohub,2013-06-01 20:56:00,
2013-06-01 17:01:00,83.3,70.3,29.97,SE,132,2.0,12.0,65,0.00,,,0.00,meteohub,2013-06-01 21:01:00,
2013-06-01 17:06:00,83.3,70.3,29.97,WSW,243,5.0,13.0,65,0.00,,,0.00,meteohub,2013-06-01 21:06:00,
2013-06-01 17:11:00,83.5,70.0,29.97,SW,225,4.0,13.0,64,0.00,,,0.00,meteohub,2013-06-01 21:11:00,
2013-06-01 17:16:00,83.3,70.3,29.97,South,179,3.0,9.0,65,0.00,,,0.00,meteohub,2013-06-01 21:16:00,
2013-06-01 17:21:00,83.1,70.2,29.97,South,191,3.0,10.0,65,0.00,,,0.00,meteohub,2013-06-01 21:21:00,
2013-06-01 17:26:00,82.9,70.0,29.97,SSE,165,3.0,10.0,65,0.00,,,0.00,meteohub,2013-06-01 21:26:00,
2013-06-01 17:31:00,82.9,70.0,29.97,WNW,287,2.0,10.0,65,0.00,,,0.00,meteohub,2013-06-01 21:31:00,
2013-06-01 17:36:00,82.8,69.8,29.97,SW,214,3.0,9.0,65,0.00,,,0.00,meteohub,2013-06-01 21:36:00,
2013-06-01 17:41:00,82.4,69.4,29.97,WSW,245,4.0,10.0,65,0.00,,,0.00,meteohub,2013-06-01 21:41:00,
2013-06-01 17:46:00,81.9,69.4,29.96,SW,229,7.0,11.0,66,0.00,,,0.00,meteohub,2013-06-01 21:46:00,
2013-06-01 17:51:00,81.7,69.3,29.96,WSW,240,5.0,11.0,66,0.00,,,0.00,meteohub,2013-06-01 21:51:00,
2013-06-01 17:56:00,81.0,68.5,29.96,North,5,1.0,13.0,66,0.00,,,0.00,meteohub,2013-06-01 21:56:00,
2013-06-01 18:01:00,80.4,68.5,29.96,West,274,4.0,13.0,67,0.00,,,0.00,meteohub,2013-06-01 22:01:00,
2013-06-01 18:06:00,79.9,68.0,29.96,SSW,203,9.0,13.0,67,0.00,,,0.00,meteohub,2013-06-01 22:06:00,
2013-06-01 18:11:00,79.5,67.6,29.96,SSW,207,0.0,11.0,67,0.00,,,0.00,meteohub,2013-06-01 22:11:00,
2013-06-01 18:16:00,79.2,67.3,29.96,SSW,211,4.0,9.0,67,0.00,,,0.00,meteohub,2013-06-01 22:16:00,
2013-06-01 18:21:00,78.8,66.9,29.96,SW,215,4.0,9.0,67,0.00,,,0.00,meteohub,2013-06-01 22:21:00,
2013-06-01 18:26:00,78.3,66.4,29.96,SSW,200,4.0,10.0,67,0.00,,,0.00,meteohub,2013-06-01 22:26:00,
2013-06-01 18:31:00,78.1,66.2,29.95,SSE,153,2.0,11.0,67,0.00,,,0.00,meteohub,2013-06-01 22:31:00,
2013-06-01 18:36:00,77.5,65.7,29.95,SSE,155,4.0,11.0,67,0.00,,,0.00,meteohub,2013-06-01 22:36:00,
2013-06-01 18:41:00,77.2,65.3,29.95,ESE,112,4.0,12.0,67,0.00,,,0.00,meteohub,2013-06-01 22:41:00,
2013-06-01 18:46:00,76.8,64.9,29.96,SSW,203,3.0,12.0,67,0.00,,,0.00,meteohub,2013-06-01 22:46:00,
2013-06-01 18:51:00,76.6,64.4,29.95,South,187,3.0,12.0,66,0.00,,,0.00,meteohub,2013-06-01 22:51:00,
2013-06-01 18:56:00,76.3,64.0,29.95,SW,229,6.0,12.0,66,0.00,,,0.00,meteohub,2013-06-01 22:56:00,
2013-06-01 19:01:00,76.1,63.9,29.95,SSE,164,2.0,12.0,66,0.00,,,0.00,meteohub,2013-06-01 23:01:00,
2013-06-01 19:06:00,75.7,63.1,29.96,SE,135,3.0,12.0,65,0.00,,,0.00,meteohub,2013-06-01 23:06:00,
2013-06-01 19:11:00,75.4,62.8,29.95,SSW,210,7.0,11.0,65,0.00,,,0.00,meteohub,2013-06-01 23:11:00,
2013-06-01 19:16:00,75.0,62.1,29.96,West,264,1.0,12.0,64,0.00,,,0.00,meteohub,2013-06-01 23:16:00,
2013-06-01 19:21:00,74.7,61.2,29.95,SE,135,3.0,12.0,63,0.00,,,0.00,meteohub,2013-06-01 23:21:00,
2013-06-01 19:26:00,74.5,60.6,29.95,SW,218,12.0,12.0,62,0.00,,,0.00,meteohub,2013-06-01 23:26:00,
2013-06-01 19:31:00,73.9,59.2,29.95,SSE,165,7.0,14.0,60,0.00,,,0.00,meteohub,2013-06-01 23:31:00,
2013-06-01 19:36:00,73.6,58.3,29.95,South,176,8.0,14.0,59,0.00,,,0.00,meteohub,2013-06-01 23:36:00,
2013-06-01 19:41:00,73.0,56.8,29.95,SSE,158,3.0,15.0,57,0.00,,,0.00,meteohub,2013-06-01 23:41:00,
2013-06-01 19:46:00,72.7,55.6,29.95,SE,124,8.0,15.0,55,0.00,,,0.00,meteohub,2013-06-01 23:46:00,
2013-06-01 19:51:00,72.1,54.5,29.96,West,266,6.0,15.0,54,0.00,,,0.00,meteohub,2013-06-01 23:51:00,
2013-06-01 19:56:00,71.8,51.6,29.96,West,263,7.0,15.0,49,0.00,,,0.00,meteohub,2013-06-01 23:56:00,
2013-06-01 20:01:00,71.4,48.9,29.96,South,179,6.0,14.0,45,0.00,,,0.00,meteohub,2013-06-02 00:01:00,
2013-06-01 20:06:00,71.1,46.2,29.95,SW,217,5.0,14.0,41,0.00,,,0.00,meteohub,2013-06-02 00:06:00,
2013-06-01 20:11:00,70.7,43.2,29.95,SE,134,5.0,14.0,37,0.00,,,0.00,meteohub,2013-06-02 00:11:00,
2013-06-01 20:16:00,70.5,41.5,29.95,SW,219,3.0,13.0,35,0.00,,,0.00,meteohub,2013-06-02 00:16:00,
2013-06-01 20:21:00,70.2,38.8,29.96,SW,229,2.0,14.0,32,0.00,,,0.00,meteohub,2013-06-02 00:21:00,
2013-06-01 20:26:00,70.2,35.6,29.96,SE,145,5.0,14.0,28,0.00,,,0.00,meteohub,2013-06-02 00:26:00,
2013-06-01 20:31:00,70.0,33.4,29.96,North,11,6.0,14.0,26,0.00,,,0.00,meteohub,2013-06-02 00:31:00,
2013-06-01 20:36:00,70.0,31.5,29.96,SSW,201,4.0,13.0,24,0.00,,,0.00,meteohub,2013-06-02 00:36:00,
2013-06-01 20:41:00,69.8,29.3,29.96,SW,233,4.0,13.0,22,0.00,,,0.00,meteohub,2013-06-02 00:41:00,
2013-06-01 20:46:00,69.8,28.0,29.96,ESE,112,5.0,15.0,21,0.00,,,0.00,meteohub,2013-06-02 00:46:00,
2013-06-01 20:51:00,69.8,27.0,29.96,South,174,5.0,15.0,20,0.00,,,0.00,meteohub,2013-06-02 00:51:00,
2013-06-01 20:56:00,69.8,25.7,29.96,SSE,165,7.0,14.0,19,0.00,,,0.00,meteohub,2013-06-02 00:56:00,
2013-06-01 21:01:00,69.8,27.0,29.96,South,171,6.0,15.0,20,0.00,,,0.00,meteohub,2013-06-02 01:01:00,
2013-06-01 21:06:00,69.8,28.0,29.96,South,184,6.0,15.0,21,0.00,,,0.00,meteohub,2013-06-02 01:06:00,
2013-06-01 21:11:00,69.8,27.0,29.96,West,264,6.0,15.0,20,0.00,,,0.00,meteohub,2013-06-02 01:11:00,
2013-06-01 21:16:00,70.0,28.2,29.96,WSW,250,6.0,13.0,21,0.00,,,0.00,meteohub,2013-06-02 01:16:00,
2013-06-01 21:21:00,69.8,28.0,29.96,WSW,243,7.0,17.0,21,0.00,,,0.00,meteohub,2013-06-02 01:21:00,
2013-06-01 21:26:00,69.6,27.9,29.97,South,172,5.0,17.0,21,0.00,,,0.00,meteohub,2013-06-02 01:26:00,
2013-06-01 21:31:00,69.6,26.8,29.97,SSE,166,5.0,23.0,20,0.00,,,0.00,meteohub,2013-06-02 01:31:00,
2013-06-01 21:36:00,69.6,25.5,29.97,SE,132,6.0,23.0,19,0.00,,,0.00,meteohub,2013-06-02 01:36:00,
2013-06-01 21:41:00,69.6,24.3,29.97,SSW,210,8.0,15.0,18,0.00,,,0.00,meteohub,2013-06-02 01:41:00,
2013-06-01 21:46:00,69.6,26.8,29.97,South,186,8.0,15.0,20,0.00,,,0.00,meteohub,2013-06-02 01:46:00,
2013-06-01 21:51:00,69.8,29.3,29.97,South,172,5.0,13.0,22,0.00,,,0.00,meteohub,2013-06-02 01:51:00,
2013-06-01 21:56:00,69.8,29.3,29.97,East,101,3.0,14.0,22,0.00,,,0.00,meteohub,2013-06-02 01:56:00,
2013-06-01 22:01:00,70.0,30.6,29.97,SE,143,5.0,14.0,23,0.00,,,0.00,meteohub,2013-06-02 02:01:00,
2013-06-01 22:06:00,70.0,32.5,29.97,West,280,6.0,14.0,25,0.00,,,0.00,meteohub,2013-06-02 02:06:00,
2013-06-01 22:11:00,70.0,33.4,29.97,SSE,160,2.0,14.0,26,0.00,,,0.00,meteohub,2013-06-02 02:11:00,
2013-06-01 22:16:00,70.0,33.4,29.96,SSW,212,4.0,14.0,26,0.00,,,0.00,meteohub,2013-06-02 02:16:00,
2013-06-01 22:21:00,70.0,33.4,29.97,South,173,5.0,14.0,26,0.00,,,0.00,meteohub,2013-06-02 02:21:00,
2013-06-01 22:26:00,70.0,33.4,29.97,SSW,193,3.0,14.0,26,0.00,,,0.00,meteohub,2013-06-02 02:26:00,
2013-06-01 22:31:00,70.0,32.5,29.96,South,190,4.0,14.0,25,0.00,,,0.00,meteohub,2013-06-02 02:31:00,
2013-06-01 22:36:00,70.0,30.6,29.96,SW,218,2.0,14.0,23,0.00,,,0.00,meteohub,2013-06-02 02:36:00,
2013-06-01 22:41:00,70.0,30.6,29.96,WSW,250,3.0,13.0,23,0.00,,,0.00,meteohub,2013-06-02 02:41:00,
2013-06-01 22:46:00,70.0,29.3,29.96,SSE,160,4.0,12.0,22,0.00,,,0.00,meteohub,2013-06-02 02:46:00,
2013-06-01 22:51:00,70.2,28.4,29.96,SSE,149,5.0,12.0,21,0.00,,,0.00,meteohub,2013-06-02 02:51:00,
2013-06-01 22:56:00,70.2,29.5,29.96,SSW,201,4.0,12.0,22,0.00,,,0.00,meteohub,2013-06-02 02:56:00,
2013-06-01 23:01:00,70.2,29.5,29.97,SSW,212,4.0,12.0,22,0.00,,,0.00,meteohub,2013-06-02 03:01:00,
2013-06-01 23:06:00,70.2,30.6,29.97,South,186,2.0,13.0,23,0.00,,,0.00,meteohub,2013-06-02 03:06:00,
2013-06-01 23:11:00,70.0,31.5,29.97,SE,135,1.0,13.0,24,0.00,,,0.00,meteohub,2013-06-02 03:11:00,
2013-06-01 23:16:00,70.0,31.5,29.97,WSW,248,14.0,14.0,24,0.00,,,0.00,meteohub,2013-06-02 03:16:00,
2013-06-01 23:21:00,70.0,33.4,29.96,SW,218,10.0,20.0,26,0.00,,,0.00,meteohub,2013-06-02 03:21:00,
2013-06-01 23:26:00,70.2,36.5,29.96,SSE,151,5.0,20.0,29,0.00,,,0.00,meteohub,2013-06-02 03:26:00,
2013-06-01 23:31:00,70.2,38.8,29.96,East,101,4.0,20.0,32,0.00,,,0.00,meteohub,2013-06-02 03:31:00,
2013-06-01 23:36:00,70.3,41.4,29.97,ESE,113,6.0,15.0,35,0.00,,,0.00,meteohub,2013-06-02 03:36:00,
2013-06-01 23:41:00,70.3,42.8,29.96,WSW,245,8.0,15.0,37,0.00,,,0.00,meteohub,2013-06-02 03:41:00,
2013-06-01 23:46:00,70.3,43.5,29.96,WNW,300,3.0,16.0,38,0.00,,,0.00,meteohub,2013-06-02 03:46:00,
2013-06-01 23:51:00,70.3,43.5,29.96,SSE,166,4.0,16.0,38,0.00,,,0.00,meteohub,2013-06-02 03:51:00,
2013-06-01 23:56:00,70.3,44.2,29.96,South,169,4.0,19.0,39,0.00,,,0.00,meteohub,2013-06-02 03:56:00,